Time;durP1;ratioP1;P1;durP2;ratioP2;P2;SDS_P1;SDS_P2;PMS_P1;PMS_P2;Temp;Humidity;BMP_temperature;BMP_pressure;BME280_temperature;BME280_humidity;BME280_pressure;Samples;Min_cycle;Max_cycle;Signal;HPM_P1;HPM_P2
2022/09/10 00:01:59;;;;;;;;;;;;;;;23.63;51.10;100646.28;5149958;27;19923;-38
2022/09/10 00:04:25;;;;;;;;;;;;;;;23.60;51.20;100650.50;5149349;27;19930;-38
2022/09/10 00:06:51;;;;;;;;;;;;;;;23.63;51.10;100651.84;5148246;27;19937;-38
2022/09/10 00:09:16;;;;;;;;;;;;;;;23.62;51.00;100647.41;5149752;27;20369;-37
2022/09/10 00:11:42;;;;;;;;;;;;;;;23.61;50.99;100654.91;5150626;27;19944;-38
2022/09/10 00:14:10;;;;;;;;;;;;;;;23.62;51.09;100652.97;5135720;27;20006;-38
2022/09/10 00:16:35;;;;;;;;;;;;;;;23.62;51.11;100655.75;5149723;27;20011;-38
2022/09/10 00:19:01;;;;;;;;;;;;;;;23.63;50.96;100655.44;5147458;27;19927;-38
2022/09/10 00:21:27;;;;;;;;;;;;;;;23.61;51.04;100654.91;5150832;27;19923;-38
2022/09/10 00:23:53;;;;;;;;;;;;;;;23.61;51.00;100654.09;5133250;27;19975;-38
2022/09/10 00:26:20;;;;;;;;;;;;;;;23.61;50.97;100654.91;5150092;27;20030;-37
2022/09/10 00:28:46;;;;;;;;;;;;;;;23.59;51.14;100654.44;5149962;27;20449;-41
2022/09/10 00:31:12;;;;;;;;;;;;;;;23.60;51.09;100649.69;5133931;27;19923;-40
2022/09/10 00:33:38;;;;;;;;;;;;;;;23.59;51.10;100643.31;5151476;27;19931;-40
2022/09/10 00:36:04;;;;;;;;;;;;;;;23.58;51.02;100658.34;5149541;27;20323;-40
2022/09/10 00:38:30;;;;;;;;;;;;;;;23.59;51.14;100648.88;5133220;27;20023;-40
2022/09/10 00:41:02;;;;;;;;;;;;;;;23.60;51.00;100650.50;5130093;27;19956;-40
2022/09/10 00:43:43;;;;;;;;;;;;;;;23.59;51.10;100651.66;5137374;27;20010;-40
2022/09/10 00:46:09;;;;;;;;;;;;;;;23.59;51.02;100648.06;5148694;27;19973;-40
2022/09/10 00:48:34;;;;;;;;;;;;;;;23.58;51.02;100650.03;5151001;27;20201;-40
2022/09/10 00:51:00;;;;;;;;;;;;;;;23.58;51.02;100658.34;5150018;27;19955;-40
2022/09/10 00:53:26;;;;;;;;;;;;;;;23.59;51.11;100648.88;5151364;27;19923;-40
2022/09/10 00:55:52;;;;;;;;;;;;;;;23.58;51.16;100649.19;5148742;27;19923;-41
2022/09/10 00:58:18;;;;;;;;;;;;;;;23.58;51.14;100649.19;5148114;27;20017;-40
2022/09/10 01:00:44;;;;;;;;;;;;;;;23.58;51.02;100650.03;5150472;27;19931;-40
2022/09/10 01:03:10;;;;;;;;;;;;;;;23.59;51.03;100648.88;5148750;27;19927;-40
2022/09/10 01:05:37;;;;;;;;;;;;;;;23.59;51.03;100645.28;5148995;27;20404;-40
2022/09/10 01:08:02;;;;;;;;;;;;;;;23.58;50.97;100644.47;5149172;27;19970;-40
2022/09/10 01:10:30;;;;;;;;;;;;;;;23.58;51.13;100638.91;5133518;27;20284;-40
2022/09/10 01:13:15;;;;;;;;;;;;;;;23.58;51.03;100635.31;5152584;27;20074;-40
2022/09/10 01:16:01;;;;;;;;;;;;;;;23.59;50.98;100634.16;5134870;27;20342;-40
2022/09/10 01:18:30;;;;;;;;;;;;;;;23.57;50.98;100637.25;5136868;27;19923;-40
2022/09/10 01:21:16;;;;;;;;;;;;;;;23.58;51.13;100629.75;5151997;27;19933;-40
2022/09/10 01:23:48;;;;;;;;;;;;;;;23.58;51.22;100625.00;5137569;27;19923;-40
2022/09/10 01:26:24;;;;;;;;;;;;;;;23.57;51.17;100622.53;5150813;27;19970;-40
2022/09/10 01:28:50;;;;;;;;;;;;;;;23.56;51.19;100621.69;5150923;27;19984;-40
2022/09/10 01:31:19;;;;;;;;;;;;;;;23.58;51.06;100622.22;5152034;27;20278;-40
2022/09/10 01:33:47;;;;;;;;;;;;;;;23.57;51.10;100620.56;5153181;27;19931;-40
2022/09/10 01:36:15;;;;;;;;;;;;;;;23.58;51.04;100624.19;5153165;27;20014;-40
2022/09/10 01:38:40;;;;;;;;;;;;;;;23.57;50.98;100623.34;5135074;27;20006;-40
2022/09/10 01:41:06;;;;;;;;;;;;;;;23.57;51.15;100633.63;5152810;27;19976;-40
2022/09/10 01:43:32;;;;;;;;;;;;;;;23.56;51.13;100641.16;5153748;27;19923;-40
2022/09/10 01:46:18;;;;;;;;;;;;;;;23.56;51.03;100632.81;5150452;27;19975;-40
2022/09/10 01:49:03;;;;;;;;;;;;;;;23.58;51.02;100641.69;5139565;27;19980;-40
2022/09/10 01:51:33;;;;;;;;;;;;;;;23.57;50.93;100633.63;5151024;27;20018;-40
2022/09/10 01:56:45;;;;;;;;;;;;;;;23.56;51.14;100629.22;5162482;27;19941;-38
2022/09/10 01:59:14;;;;;;;;;;;;;;;23.56;51.09;100634.78;5155882;27;20403;-38
2022/09/10 02:01:49;;;;;;;;;;;;;;;23.56;51.12;100632.81;5155558;27;20006;-38
2022/09/10 02:04:14;;;;;;;;;;;;;;;23.56;50.93;100632.81;5128707;27;19980;-37
2022/09/10 02:06:41;;;;;;;;;;;;;;;23.56;51.06;100623.66;5153292;27;20390;-38
2022/09/10 02:09:07;;;;;;;;;;;;;;;23.56;51.17;100623.66;5139668;27;20010;-37
2022/09/10 02:11:42;;;;;;;;;;;;;;;23.54;51.10;100627.59;5158860;27;20336;-37
2022/09/10 02:14:07;;;;;;;;;;;;;;;23.55;50.97;100625.63;5139703;27;20358;-37
2022/09/10 02:16:36;;;;;;;;;;;;;;;23.54;51.18;100624.81;5153086;27;19930;-37
2022/09/10 02:19:02;;;;;;;;;;;;;;;23.55;50.94;100622.84;5136084;27;19923;-38
2022/09/10 02:21:27;;;;;;;;;;;;;;;23.56;51.04;100624.47;5134939;27;19972;-37
2022/09/10 02:23:55;;;;;;;;;;;;;;;23.55;50.98;100622.84;5157065;27;20285;-38
2022/09/10 02:26:21;;;;;;;;;;;;;;;23.55;51.10;100625.63;5155437;27;20033;-37
2022/09/10 02:28:48;;;;;;;;;;;;;;;23.55;51.00;100622.84;5158874;27;20015;-38
2022/09/10 02:31:13;;;;;;;;;;;;;;;23.55;51.02;100622.84;5154928;27;20358;-39
2022/09/10 02:33:39;;;;;;;;;;;;;;;23.55;51.01;100625.63;5155034;27;19923;-37
2022/09/10 02:36:05;;;;;;;;;;;;;;;23.54;51.13;100624.81;5158194;27;19930;-38
2022/09/10 02:38:30;;;;;;;;;;;;;;;23.54;50.93;100624.81;5153922;27;19928;-37
2022/09/10 02:40:57;;;;;;;;;;;;;;;23.54;51.17;100627.59;5158823;27;19942;-37
2022/09/10 02:43:24;;;;;;;;;;;;;;;23.54;50.89;100624.00;5154222;27;19990;-38
2022/09/10 02:45:50;;;;;;;;;;;;;;;23.54;51.06;100624.81;5153978;27;20065;-37
2022/09/10 02:48:17;;;;;;;;;;;;;;;23.54;51.01;100626.78;5158521;27;19923;-37
2022/09/10 02:50:43;;;;;;;;;;;;;;;23.54;50.89;100627.59;5150012;27;19989;-37
2022/09/10 02:53:11;;;;;;;;;;;;;;;23.54;51.04;100630.38;5149794;27;19967;-37
2022/09/10 02:55:36;;;;;;;;;;;;;;;23.55;50.97;100631.19;5155076;27;19996;-38
2022/09/10 02:58:02;;;;;;;;;;;;;;;23.53;51.09;100622.31;5152490;27;19930;-38
2022/09/10 03:00:27;;;;;;;;;;;;;;;23.54;51.14;100624.81;5155052;27;19927;-38
2022/09/10 03:02:55;;;;;;;;;;;;;;;23.54;51.00;100621.22;5148726;27;19935;-38
2022/09/10 03:05:27;;;;;;;;;;;;;;;23.54;50.83;100637.91;5155487;27;20357;-38
2022/09/10 03:07:54;;;;;;;;;;;;;;;23.54;50.98;100630.38;5136425;27;19933;-38
2022/09/10 03:10:19;;;;;;;;;;;;;;;23.54;50.95;100632.34;5140111;27;20022;-37
2022/09/10 03:12:46;;;;;;;;;;;;;;;23.54;50.92;100629.56;5139307;27;19938;-37
2022/09/10 03:15:12;;;;;;;;;;;;;;;23.53;50.92;100630.66;5146478;27;20010;-38
2022/09/10 03:17:37;;;;;;;;;;;;;;;23.54;51.10;100632.34;5139494;27;19930;-39
2022/09/10 03:20:04;;;;;;;;;;;;;;;23.53;50.99;100622.31;5137463;27;20400;-37
2022/09/10 03:22:30;;;;;;;;;;;;;;;23.53;50.97;100634.28;5140613;27;20356;-38
2022/09/10 03:24:57;;;;;;;;;;;;;;;23.53;51.03;100622.31;5144147;27;20373;-38
2022/09/10 03:27:24;;;;;;;;;;;;;;;23.54;51.02;100627.59;5137853;27;19974;-38
2022/09/10 03:29:49;;;;;;;;;;;;;;;23.51;50.93;100628.22;5120336;27;20010;-37
2022/09/10 03:32:15;;;;;;;;;;;;;;;23.53;50.90;100623.19;5139324;27;19930;-38
2022/09/10 03:34:40;;;;;;;;;;;;;;;23.54;51.08;100624.81;5140121;27;19923;-37
2022/09/10 03:37:06;;;;;;;;;;;;;;;23.53;51.02;100623.19;5141772;27;20315;-38
2022/09/10 03:39:31;;;;;;;;;;;;;;;23.53;50.94;100625.97;5144828;27;19923;-38
2022/09/10 03:41:57;;;;;;;;;;;;;;;23.53;51.06;100623.19;5141897;27;19931;-38
2022/09/10 03:44:23;;;;;;;;;;;;;;;23.53;50.94;100625.97;5130537;27;19955;-38
2022/09/10 03:46:50;;;;;;;;;;;;;;;23.52;50.94;100621.50;5121973;27;20301;-38
2022/09/10 03:49:16;;;;;;;;;;;;;;;23.51;50.98;100622.66;5124402;27;20011;-37
2022/09/10 03:51:41;;;;;;;;;;;;;;;23.53;50.94;100623.19;5119655;28;20343;-38
2022/09/10 03:54:07;;;;;;;;;;;;;;;23.52;50.94;100629.03;5121911;28;19934;-38
2022/09/10 03:56:33;;;;;;;;;;;;;;;23.53;51.06;100630.66;5120686;27;20027;-37
2022/09/10 03:58:59;;;;;;;;;;;;;;;23.53;51.02;100628.75;5104933;28;19939;-37
2022/09/10 04:01:24;;;;;;;;;;;;;;;23.52;51.08;100632.63;5123534;28;20023;-37
2022/09/10 04:03:52;;;;;;;;;;;;;;;23.52;51.07;100629.03;5102585;28;19924;-37
2022/09/10 04:06:18;;;;;;;;;;;;;;;23.53;51.09;100633.44;5115798;28;20010;-39
2022/09/10 04:08:44;;;;;;;;;;;;;;;23.53;50.98;100627.88;5121853;28;19934;-37
2022/09/10 04:11:09;;;;;;;;;;;;;;;23.52;50.94;100624.28;5118140;28;19924;-38
2022/09/10 04:13:35;;;;;;;;;;;;;;;23.52;51.08;100617.91;5123847;27;20298;-37
2022/09/10 04:16:01;;;;;;;;;;;;;;;23.52;50.96;100617.91;5121151;27;19931;-37
2022/09/10 04:18:26;;;;;;;;;;;;;;;23.52;50.91;100623.47;5119909;27;19923;-37
2022/09/10 04:20:52;;;;;;;;;;;;;;;23.51;50.93;100625.44;5121369;27;20231;-37
2022/09/10 04:23:18;;;;;;;;;;;;;;;23.51;50.91;100619.88;5121305;28;20011;-37
2022/09/10 04:25:45;;;;;;;;;;;;;;;23.51;50.93;100622.66;5120054;27;19928;-38
2022/09/10 04:28:11;;;;;;;;;;;;;;;23.51;50.94;100619.06;5121454;28;20005;-38
2022/09/10 04:30:37;;;;;;;;;;;;;;;23.51;50.87;100628.22;5127631;27;20577;-38
2022/09/10 04:33:02;;;;;;;;;;;;;;;23.50;51.19;100626.59;5122440;27;19931;-38
2022/09/10 04:35:28;;;;;;;;;;;;;;;23.51;51.12;100627.41;5121813;28;21028;-38
2022/09/10 04:37:53;;;;;;;;;;;;;;;23.51;50.92;100624.63;5121250;27;19987;-37
2022/09/10 04:40:19;;;;;;;;;;;;;;;23.50;50.88;100628.53;5123688;27;19934;-37
2022/09/10 04:42:44;;;;;;;;;;;;;;;23.50;51.14;100621.03;5123614;28;19932;-38
2022/09/10 04:45:10;;;;;;;;;;;;;;;23.50;51.08;100628.53;5116670;27;19935;-38
2022/09/10 04:47:36;;;;;;;;;;;;;;;23.52;50.90;100626.25;5116051;27;19931;-37
2022/09/10 04:50:02;;;;;;;;;;;;;;;23.50;50.90;100629.38;5121417;28;19970;-37
2022/09/10 04:52:28;;;;;;;;;;;;;;;23.51;51.07;100632.97;5121173;27;19961;-37
2022/09/10 04:54:53;;;;;;;;;;;;;;;23.50;51.05;100636.88;5125266;27;19980;-37
2022/09/10 04:57:19;;;;;;;;;;;;;;;23.50;50.93;100639.66;5128288;27;19923;-37
2022/09/10 04:59:44;;;;;;;;;;;;;;;23.50;50.96;100648.00;5123008;27;19965;-37
2022/09/10 05:02:10;;;;;;;;;;;;;;;23.50;50.97;100643.25;5117781;28;20075;-37
2022/09/10 05:04:36;;;;;;;;;;;;;;;23.48;51.04;100642.75;5118988;28;19932;-37
2022/09/10 05:07:01;;;;;;;;;;;;;;;23.49;50.96;100646.38;5117233;28;19931;-38
2022/09/10 05:09:30;;;;;;;;;;;;;;;23.48;50.97;100642.75;5119053;27;19931;-38
2022/09/10 05:11:56;;;;;;;;;;;;;;;23.48;51.05;100645.53;5126923;27;20006;-37
2022/09/10 05:14:22;;;;;;;;;;;;;;;23.48;51.03;100641.91;5122049;27;20007;-38
2022/09/10 05:16:47;;;;;;;;;;;;;;;23.49;50.84;100644.41;5121468;27;19924;-37
2022/09/10 05:19:16;;;;;;;;;;;;;;;23.47;51.08;100643.88;5120035;28;20278;-38
2022/09/10 05:21:43;;;;;;;;;;;;;;;23.48;50.98;100645.53;5117260;28;19954;-37
2022/09/10 05:24:09;;;;;;;;;;;;;;;23.49;51.08;100647.19;5102827;28;20293;-37
2022/09/10 05:26:35;;;;;;;;;;;;;;;23.47;51.08;100641.09;5115349;28;19931;-38
2022/09/10 05:29:00;;;;;;;;;;;;;;;23.48;50.98;100644.69;5122439;28;20000;-38
2022/09/10 05:31:26;;;;;;;;;;;;;;;23.47;51.04;100643.88;5123049;27;19924;-37
2022/09/10 05:33:53;;;;;;;;;;;;;;;23.47;51.13;100648.63;5119110;27;19931;-37
2022/09/10 05:36:19;;;;;;;;;;;;;;;23.47;50.99;100648.63;5114974;28;19959;-38
2022/09/10 05:38:45;;;;;;;;;;;;;;;23.47;51.04;100646.66;5115510;27;20242;-38
2022/09/10 05:41:11;;;;;;;;;;;;;;;23.46;51.11;100650.59;5119315;28;20022;-37
2022/09/10 05:43:37;;;;;;;;;;;;;;;23.47;51.16;100655.00;5121374;28;19923;-38
2022/09/10 05:46:02;;;;;;;;;;;;;;;23.47;50.97;100652.22;5125936;27;19932;-38
2022/09/10 05:48:28;;;;;;;;;;;;;;;23.46;50.96;100655.34;5118819;27;19927;-37
2022/09/10 05:50:54;;;;;;;;;;;;;;;23.48;50.97;100658.59;5129205;27;20384;-37
2022/09/10 05:53:20;;;;;;;;;;;;;;;23.46;50.99;100658.94;5128075;27;19939;-38
2022/09/10 05:55:46;;;;;;;;;;;;;;;23.46;50.98;100660.88;5122720;27;20010;-39
2022/09/10 05:58:12;;;;;;;;;;;;;;;23.46;50.98;100661.69;5110274;28;19924;-37
2022/09/10 06:00:38;;;;;;;;;;;;;;;23.45;51.05;100662.84;5124150;27;20010;-38
2022/09/10 06:03:04;;;;;;;;;;;;;;;23.47;51.03;100668.09;5121568;27;19923;-38
2022/09/10 06:05:30;;;;;;;;;;;;;;;23.46;50.96;100669.22;5123026;27;20442;-38
2022/09/10 06:07:55;;;;;;;;;;;;;;;23.47;50.97;100668.09;5123699;27;19923;-38
2022/09/10 06:10:21;;;;;;;;;;;;;;;23.46;50.98;100674.78;5102008;27;19928;-38
2022/09/10 06:12:48;;;;;;;;;;;;;;;23.45;51.13;100679.53;5123852;27;19924;-38
2022/09/10 06:15:14;;;;;;;;;;;;;;;23.46;51.11;100675.59;5117625;28;20022;-37
2022/09/10 06:17:39;;;;;;;;;;;;;;;23.45;50.93;100673.16;5120808;28;20072;-38
2022/09/10 06:20:05;;;;;;;;;;;;;;;23.45;50.96;100678.72;5102007;28;19931;-38
2022/09/10 06:22:30;;;;;;;;;;;;;;;23.46;50.99;100677.56;5097496;28;20282;-38
2022/09/10 06:24:56;;;;;;;;;;;;;;;23.46;51.10;100677.56;5123179;28;19975;-37
2022/09/10 06:27:22;;;;;;;;;;;;;;;23.45;51.08;100678.72;5121529;28;19976;-37
2022/09/10 06:29:47;;;;;;;;;;;;;;;23.45;50.93;100681.50;5122258;28;19931;-37
2022/09/10 06:32:13;;;;;;;;;;;;;;;23.45;51.09;100685.09;5117172;28;20328;-38
2022/09/10 06:34:38;;;;;;;;;;;;;;;23.44;51.13;100683.41;5119506;28;19954;-37
2022/09/10 06:37:04;;;;;;;;;;;;;;;23.44;50.99;100683.41;5119825;28;19934;-38
2022/09/10 06:39:30;;;;;;;;;;;;;;;23.45;51.13;100687.88;5123654;28;19923;-37
2022/09/10 06:41:56;;;;;;;;;;;;;;;23.44;51.04;100697.31;5103197;28;19932;-37
2022/09/10 06:44:21;;;;;;;;;;;;;;;23.44;50.97;100690.94;5123055;28;20315;-37
2022/09/10 06:46:47;;;;;;;;;;;;;;;23.45;50.88;100695.38;5126702;27;19931;-37
2022/09/10 06:49:33;;;;;;;;;;;;;;;23.44;50.97;100690.94;5108546;28;19928;-38
2022/09/10 06:52:00;;;;;;;;;;;;;;;23.43;51.11;100692.91;5119624;27;19938;-37
2022/09/10 06:54:25;;;;;;;;;;;;;;;23.44;51.01;100700.09;5125770;28;19966;-38
2022/09/10 06:56:51;;;;;;;;;;;;;;;23.45;51.01;100704.53;5122592;27;19931;-37
2022/09/10 06:59:17;;;;;;;;;;;;;;;23.44;51.00;100699.28;5128892;27;19923;-37
2022/09/10 07:01:43;;;;;;;;;;;;;;;23.44;51.02;100705.66;5119229;28;20347;-38
2022/09/10 07:04:08;;;;;;;;;;;;;;;23.44;51.04;100705.66;5121600;28;20323;-38
2022/09/10 07:06:34;;;;;;;;;;;;;;;23.43;51.09;100701.25;5128197;27;19935;-38
2022/09/10 07:08:59;;;;;;;;;;;;;;;23.43;51.16;100704.00;5120235;27;20263;-38
2022/09/10 07:11:26;;;;;;;;;;;;;;;23.45;51.01;100703.72;5109145;28;19924;-38
2022/09/10 07:13:52;;;;;;;;;;;;;;;23.45;51.09;100706.50;5120335;28;20019;-38
2022/09/10 07:16:19;;;;;;;;;;;;;;;23.43;50.98;100701.25;5123771;27;19930;-38
2022/09/10 07:18:53;;;;;;;;;;;;;;;23.43;51.19;100705.97;5102082;28;20023;-37
2022/09/10 07:21:19;;;;;;;;;;;;;;;23.43;51.02;100705.97;5103648;28;20027;-37
2022/09/10 07:23:48;;;;;;;;;;;;;;;23.43;51.23;100705.97;5124718;27;19931;-38
2022/09/10 07:26:15;;;;;;;;;;;;;;;23.43;51.07;100711.53;5105024;28;20090;-38
2022/09/10 07:28:41;;;;;;;;;;;;;;;23.43;51.20;100705.97;5122041;28;20010;-37
2022/09/10 07:31:15;;;;;;;;;;;;;;;23.42;51.11;100715.47;5124548;27;19971;-37
2022/09/10 07:33:41;;;;;;;;;;;;;;;23.42;51.11;100704.34;5102057;28;19924;-37
2022/09/10 07:36:07;;;;;;;;;;;;;;;23.43;51.10;100711.53;5120279;27;19937;-37
2022/09/10 07:38:32;;;;;;;;;;;;;;;23.42;51.01;100716.28;5110524;27;19923;-37
2022/09/10 07:40:58;;;;;;;;;;;;;;;23.44;51.01;100711.22;5129945;27;20422;-37
2022/09/10 07:43:24;;;;;;;;;;;;;;;23.42;51.02;100716.28;5123403;28;20627;-37
2022/09/10 07:45:49;;;;;;;;;;;;;;;23.42;51.09;100721.84;5124274;27;19935;-38
2022/09/10 07:48:15;;;;;;;;;;;;;;;23.42;51.17;100718.25;5122871;27;20286;-38
2022/09/10 07:50:40;;;;;;;;;;;;;;;23.43;51.02;100715.13;5119889;27;20304;-37
2022/09/10 07:53:06;;;;;;;;;;;;;;;23.43;51.10;100719.88;5123885;27;19981;-37
2022/09/10 07:55:31;;;;;;;;;;;;;;;23.41;51.02;100711.84;5115572;28;19957;-38
2022/09/10 07:57:57;;;;;;;;;;;;;;;23.42;51.07;100713.50;5119492;28;19924;-37
2022/09/10 08:00:25;;;;;;;;;;;;;;;23.41;50.94;100713.81;5104912;28;19934;-37
2022/09/10 08:02:51;;;;;;;;;;;;;;;23.41;50.93;100714.63;5125884;27;19932;-38
2022/09/10 08:05:16;;;;;;;;;;;;;;;23.42;51.10;100713.50;5119613;27;20020;-37
2022/09/10 08:07:42;;;;;;;;;;;;;;;23.42;50.96;100712.69;5119982;27;19924;-38
2022/09/10 08:10:08;;;;;;;;;;;;;;;23.41;51.16;100716.59;5120321;28;19932;-37
2022/09/10 08:12:35;;;;;;;;;;;;;;;23.42;50.95;100718.25;5123181;27;20007;-37
2022/09/10 08:15:01;;;;;;;;;;;;;;;23.43;50.96;100717.09;5119823;27;20422;-37
2022/09/10 08:17:28;;;;;;;;;;;;;;;23.41;51.03;100711.03;5105910;28;19927;-38
2022/09/10 08:19:54;;;;;;;;;;;;;;;23.41;50.94;100713.81;5122993;27;20362;-37
2022/09/10 08:22:19;;;;;;;;;;;;;;;23.41;50.96;100719.38;5122900;27;19931;-38
2022/09/10 08:24:46;;;;;;;;;;;;;;;23.42;51.02;100721.00;5124023;28;19927;-37
2022/09/10 08:27:12;;;;;;;;;;;;;;;23.42;51.04;100729.34;5123765;27;20010;-37
2022/09/10 08:29:38;;;;;;;;;;;;;;;23.40;51.16;100721.34;5117222;28;19924;-38
2022/09/10 08:32:03;;;;;;;;;;;;;;;23.42;51.17;100713.50;5121287;27;19993;-37
2022/09/10 08:34:29;;;;;;;;;;;;;;;23.42;51.00;100712.69;5128227;27;19932;-37
2022/09/10 08:36:56;;;;;;;;;;;;;;;23.41;51.01;100717.41;5122384;27;20301;-37
2022/09/10 08:39:21;;;;;;;;;;;;;;;23.40;50.97;100710.22;5119633;28;20029;-37
2022/09/10 08:41:51;;;;;;;;;;;;;;;23.41;51.01;100709.09;5123669;27;19935;-37
2022/09/10 08:44:34;;;;;;;;;;;;;;;23.41;50.97;100711.84;5117753;28;20327;-37
2022/09/10 08:47:20;;;;;;;;;;;;;;;23.42;51.02;100716.28;5114333;27;19978;-38
2022/09/10 08:49:53;;;;;;;;;;;;;;;23.42;51.15;100716.28;5116214;27;20366;-38
2022/09/10 08:52:28;;;;;;;;;;;;;;;23.42;50.99;100718.25;5124398;27;19971;-37
2022/09/10 08:54:56;;;;;;;;;;;;;;;23.41;51.19;100719.38;5122827;28;19978;-37
2022/09/10 08:57:23;;;;;;;;;;;;;;;23.41;51.07;100722.16;5121440;27;20134;-37
2022/09/10 08:59:51;;;;;;;;;;;;;;;23.40;51.11;100721.34;5116813;27;20400;-37
2022/09/10 09:02:19;;;;;;;;;;;;;;;23.42;51.00;100721.00;5121375;27;19946;-37
2022/09/10 09:05:10;;;;;;;;;;;;;;;23.41;50.99;100714.63;5108120;27;19926;-37
2022/09/10 09:07:38;;;;;;;;;;;;;;;23.42;51.01;100721.00;5121292;27;19986;-37
2022/09/10 09:10:09;;;;;;;;;;;;;;;23.41;51.20;100714.63;5121659;27;20365;-37
2022/09/10 09:12:37;;;;;;;;;;;;;;;23.41;50.99;100706.31;5099071;28;20014;-37
2022/09/10 09:15:05;;;;;;;;;;;;;;;23.42;51.00;100707.13;5117901;27;20014;-37
2022/09/10 09:17:51;;;;;;;;;;;;;;;23.41;51.13;100702.72;5119240;27;19931;-37
2022/09/10 09:20:17;;;;;;;;;;;;;;;23.41;50.99;100711.84;5126009;27;20342;-38
2022/09/10 09:22:46;;;;;;;;;;;;;;;23.41;50.95;100705.50;5101966;28;19935;-37
2022/09/10 09:25:20;;;;;;;;;;;;;;;23.40;51.06;100704.66;5109831;27;19962;-37
2022/09/10 09:27:46;;;;;;;;;;;;;;;23.40;50.94;100707.44;5122585;27;19977;-38
2022/09/10 09:30:14;;;;;;;;;;;;;;;23.40;50.96;100713.00;5127494;27;19923;-37
2022/09/10 09:32:41;;;;;;;;;;;;;;;23.40;51.10;100713.00;5116930;28;20006;-38
2022/09/10 09:35:16;;;;;;;;;;;;;;;23.41;51.00;100713.81;5114542;28;20007;-38
2022/09/10 09:37:42;;;;;;;;;;;;;;;23.40;51.01;100714.94;5099940;28;20339;-38
2022/09/10 09:40:27;;;;;;;;;;;;;;;23.41;51.02;100711.03;5119558;28;20370;-38
2022/09/10 09:42:55;;;;;;;;;;;;;;;23.40;51.21;100709.38;5103214;28;20011;-37
2022/09/10 09:45:35;;;;;;;;;;;;;;;23.40;51.03;100699.09;5118761;27;19963;-37
2022/09/10 09:48:01;;;;;;;;;;;;;;;23.39;50.95;100708.56;5120769;27;19968;-38
2022/09/10 09:50:33;;;;;;;;;;;;;;;23.39;50.97;100705.78;5124189;28;19966;-37
2022/09/10 09:52:58;;;;;;;;;;;;;;;23.40;50.97;100704.66;5117237;27;20388;-38
2022/09/10 09:55:27;;;;;;;;;;;;;;;23.39;51.14;100703.00;5120368;28;19928;-37
2022/09/10 09:58:12;;;;;;;;;;;;;;;23.40;51.06;100706.59;5098101;28;20295;-37
2022/09/10 10:00:38;;;;;;;;;;;;;;;23.39;50.90;100700.22;5107104;28;20006;-37
2022/09/10 10:03:06;;;;;;;;;;;;;;;23.40;51.11;100709.38;5123457;27;19928;-38
2022/09/10 10:05:31;;;;;;;;;;;;;;;23.39;51.21;100699.41;5119467;28;20006;-37
2022/09/10 10:07:57;;;;;;;;;;;;;;;23.39;51.00;100705.78;5123370;27;19946;-38
2022/09/10 10:10:23;;;;;;;;;;;;;;;23.40;51.02;100703.81;5122191;28;19923;-38
2022/09/10 10:12:49;;;;;;;;;;;;;;;23.39;50.92;100705.78;5119936;27;20035;-38
2022/09/10 10:15:33;;;;;;;;;;;;;;;23.38;51.03;100704.16;5103510;27;19927;-38
2022/09/10 10:18:00;;;;;;;;;;;;;;;23.38;50.98;100706.91;5108995;27;20018;-37
2022/09/10 10:20:34;;;;;;;;;;;;;;;23.39;51.04;100710.53;5126058;27;19973;-37
2022/09/10 10:23:00;;;;;;;;;;;;;;;23.38;51.04;100709.69;5101967;28;20006;-37
2022/09/10 10:25:44;;;;;;;;;;;;;;;23.39;50.98;100707.75;5122950;27;19938;-37
2022/09/10 10:28:12;;;;;;;;;;;;;;;23.39;51.20;100708.56;5101405;28;19959;-38
2022/09/10 10:30:38;;;;;;;;;;;;;;;23.40;51.12;100709.38;5103388;28;20018;-37
2022/09/10 10:33:03;;;;;;;;;;;;;;;23.39;51.09;100708.56;5128567;27;20285;-37
2022/09/10 10:35:50;;;;;;;;;;;;;;;23.38;51.13;100709.69;5121930;28;19927;-38
2022/09/10 10:38:33;;;;;;;;;;;;;;;23.39;50.97;100713.31;5107289;28;19970;-38
2022/09/10 10:41:18;;;;;;;;;;;;;;;23.38;51.03;100712.47;5103297;28;20030;-37
2022/09/10 10:44:04;;;;;;;;;;;;;;;23.38;50.99;100706.91;5106396;28;20754;-37
2022/09/10 10:46:36;;;;;;;;;;;;;;;23.37;51.13;100708.06;5103650;27;19955;-38
2022/09/10 10:49:21;;;;;;;;;;;;;;;23.38;51.10;100715.25;5118256;28;20277;-37
2022/09/10 10:54:37;;;;;;;;;;;;;;;23.39;51.07;100727.19;5177792;27;19926;-37
2022/09/10 10:57:23;;;;;;;;;;;;;;;23.39;50.97;100721.63;5162610;27;20412;-37
2022/09/10 11:02:32;;;;;;;;;;;;;;;23.38;51.17;100725.56;5177735;27;20018;-38
2022/09/10 11:05:00;;;;;;;;;;;;;;;23.38;51.03;100720.00;5174560;27;19923;-37
2022/09/10 11:07:28;;;;;;;;;;;;;;;23.37;51.06;100723.91;5176107;27;19966;-37
2022/09/10 11:09:57;;;;;;;;;;;;;;;23.37;51.17;100724.75;5173857;27;20426;-38
2022/09/10 11:12:31;;;;;;;;;;;;;;;23.38;51.21;100720.00;5175552;27;20013;-37
2022/09/10 11:15:00;;;;;;;;;;;;;;;23.37;51.15;100721.13;5176395;27;19966;-37
2022/09/10 11:17:46;;;;;;;;;;;;;;;23.38;51.15;100720.00;5170212;27;20009;-38
2022/09/10 11:20:28;;;;;;;;;;;;;;;23.37;51.20;100723.91;5171363;27;19977;-37
2022/09/10 11:23:17;;;;;;;;;;;;;;;23.37;51.17;100721.97;5174317;27;20353;-39
2022/09/10 11:25:47;;;;;;;;;;;;;;;23.36;51.14;100725.88;5165107;27;19954;-37
2022/09/10 11:28:14;;;;;;;;;;;;;;;23.37;51.12;100729.47;5176622;27;19970;-38
2022/09/10 11:30:40;;;;;;;;;;;;;;;23.36;51.20;100717.53;5159161;27;19962;-37
2022/09/10 11:33:25;;;;;;;;;;;;;;;23.37;51.19;100721.97;5170728;27;19922;-37
2022/09/10 11:35:54;;;;;;;;;;;;;;;23.37;51.08;100716.41;5153372;27;20473;-37
2022/09/10 11:38:39;;;;;;;;;;;;;;;23.36;51.01;100713.91;5172076;27;19981;-37
2022/09/10 11:41:21;;;;;;;;;;;;;;;23.36;51.28;100722.25;5156004;27;19923;-37
2022/09/10 11:43:53;;;;;;;;;;;;;;;23.36;51.07;100723.09;5147544;27;20435;-38
2022/09/10 11:46:35;;;;;;;;;;;;;;;23.36;51.13;100719.47;5151062;27;19973;-37
2022/09/10 11:49:02;;;;;;;;;;;;;;;23.36;51.06;100720.31;5158821;27;20402;-37
2022/09/10 11:51:30;;;;;;;;;;;;;;;23.36;51.05;100727.81;5147402;27;20060;-37
2022/09/10 11:53:55;;;;;;;;;;;;;;;23.36;51.11;100723.09;5133446;27;19927;-38
2022/09/10 11:59:27;;;;;;;;;;;;;;;23.38;51.03;100733.91;5176756;27;19925;-37
2022/09/10 12:02:04;;;;;;;;;;;;;;;23.36;51.22;100727.81;5162826;27;20018;-38
2022/09/10 12:04:49;;;;;;;;;;;;;;;23.35;51.12;100732.56;5180956;27;19926;-38
2022/09/10 12:07:34;;;;;;;;;;;;;;;23.35;51.20;100726.19;5155695;27;20006;-37
2022/09/10 12:10:04;;;;;;;;;;;;;;;23.35;51.12;100732.56;5161591;27;20389;-37
2022/09/10 12:12:41;;;;;;;;;;;;;;;23.36;51.12;100727.81;5174623;27;19923;-38
2022/09/10 12:15:08;;;;;;;;;;;;;;;23.36;51.02;100730.59;5175965;27;19966;-37
2022/09/10 12:17:35;;;;;;;;;;;;;;;23.36;51.10;100730.59;5153995;27;20040;-37
2022/09/10 12:20:01;;;;;;;;;;;;;;;23.35;51.13;100732.56;5174649;27;19969;-37
2022/09/10 12:22:28;;;;;;;;;;;;;;;23.35;51.09;100728.94;5175637;27;19931;-38
2022/09/10 12:24:56;;;;;;;;;;;;;;;23.35;51.15;100732.56;5178746;27;20025;-39
2022/09/10 12:27:26;;;;;;;;;;;;;;;23.35;51.12;100726.19;5148801;27;19970;-38
2022/09/10 12:29:53;;;;;;;;;;;;;;;23.35;51.16;100728.94;5157225;27;19966;-37
2022/09/10 12:35:15;;;;;;;;;;;;;;;23.35;51.34;100731.72;5175721;27;20009;-37
2022/09/10 12:37:40;;;;;;;;;;;;;;;23.34;51.15;100728.13;5148862;27;20021;-37
2022/09/10 12:40:26;;;;;;;;;;;;;;;23.34;51.23;100730.91;5159215;27;19927;-38
2022/09/10 12:43:12;;;;;;;;;;;;;;;23.34;51.14;100722.59;5147236;27;20383;-37
2022/09/10 12:45:58;;;;;;;;;;;;;;;23.33;51.16;100723.72;5148837;27;19969;-37
2022/09/10 12:48:23;;;;;;;;;;;;;;;23.34;51.17;100721.75;5150545;27;19923;-37
2022/09/10 12:50:52;;;;;;;;;;;;;;;23.35;51.15;100723.41;5169678;27;19966;-37
2022/09/10 12:53:20;;;;;;;;;;;;;;;23.34;51.21;100721.75;5167096;27;20016;-37
2022/09/10 12:56:04;;;;;;;;;;;;;;;23.34;51.23;100718.97;5165831;27;21229;-37
2022/09/10 12:58:53;;;;;;;;;;;;;;;23.33;51.28;100712.59;5163307;27;20323;-38